Time,TemperatureF,DewpointF,PressureIn,WindDirection,WindDirectionDegrees,WindSpeedMPH,WindSpeedGustMPH,Humidity,HourlyPrecipIn,Conditions,Clouds,dailyrainin,SoftwareType,DateUTC
2013-03-23 00:02:00,12.0,7.0,-100.00,NW,320,2.0,3.0,79,-99.99,,,0.00,,2013-03-23 06:02:00,
2013-03-23 00:12:00,12.0,7.0,-100.00,NW,320,2.0,3.0,79,-99.99,,,0.00,,2013-03-23 06:12:00,
2013-03-23 00:52:00,11.0,6.0,-100.00,NW,310,3.0,3.0,80,-99.99,,,0.00,,2013-03-23 06:52:00,
2013-03-23 01:02:00,11.0,6.0,-100.00,NW,310,3.0,3.0,80,-99.99,,,0.00,,2013-03-23 07:02:00,
2013-03-23 01:12:00,11.0,6.0,-100.00,NW,310,3.0,3.0,80,-99.99,,,0.00,,2013-03-23 07:12:00,
2013-03-23 01:22:00,11.0,6.0,-100.00,NW,310,3.0,3.0,80,-99.99,,,0.00,,2013-03-23 07:22:00,
2013-03-23 01:52:00,10.0,6.0,-100.00,WSW,250,3.0,3.0,82,-99.99,,,0.00,,2013-03-23 07:52:00,
2013-03-23 02:02:00,10.0,6.0,-100.00,WSW,250,3.0,3.0,82,-99.99,,,0.00,,2013-03-23 08:02:00,
2013-03-23 02:12:00,10.0,6.0,-100.00,WSW,250,3.0,3.0,82,-99.99,,,0.00,,2013-03-23 08:12:00,
2013-03-23 02:22:00,10.0,6.0,-100.00,WSW,250,3.0,3.0,82,-99.99,,,0.00,,2013-03-23 08:22:00,
2013-03-23 02:52:00,7.0,3.0,-100.00,SSE,160,1.0,2.0,82,-99.99,,,0.00,,2013-03-23 08:52:00,
2013-03-23 03:02:00,7.0,3.0,-100.00,SSE,160,1.0,2.0,82,-99.99,,,0.00,,2013-03-23 09:02:00,
2013-03-23 03:12:00,7.0,3.0,-100.00,SSE,160,1.0,2.0,82,-99.99,,,0.00,,2013-03-23 09:12:00,
2013-03-23 03:22:00,7.0,3.0,-100.00,SSE,160,1.0,2.0,82,-99.99,,,0.00,,2013-03-23 09:22:00,
2013-03-23 03:23:00,8.0,4.0,-100.00,North,-999,0.0,0.0,85,-99.99,,,0.00,,2013-03-23 09:23:00,
2013-03-23 03:53:00,8.0,4.0,-100.00,North,-999,0.0,0.0,85,-99.99,,,0.00,,2013-03-23 09:53:00,
2013-03-23 04:03:00,8.0,4.0,-100.00,North,-999,0.0,0.0,85,-99.99,,,0.00,,2013-03-23 10:03:00,
2013-03-23 04:12:00,8.0,4.0,-100.00,North,-999,0.0,0.0,85,-99.99,,,0.00,,2013-03-23 10:12:00,
2013-03-23 04:52:00,5.0,2.0,-100.00,North,-999,0.0,0.0,85,-99.99,,,0.00,,2013-03-23 10:52:00,
2013-03-23 05:03:00,5.0,2.0,-100.00,North,-999,0.0,0.0,85,-99.99,,,0.00,,2013-03-23 11:03:00,
2013-03-23 05:12:00,5.0,2.0,-100.00,North,-999,0.0,0.0,85,-99.99,,,0.00,,2013-03-23 11:12:00,
2013-03-23 05:22:00,5.0,2.0,-100.00,North,-999,0.0,0.0,85,-99.99,,,0.00,,2013-03-23 11:22:00,
2013-03-23 05:52:00,6.0,4.0,-100.00,North,-999,0.0,0.0,88,-99.99,,,0.00,,2013-03-23 11:52:00,
2013-03-23 06:02:00,6.0,4.0,-100.00,North,-999,0.0,0.0,88,-99.99,,,0.00,,2013-03-23 12:02:00,
2013-03-23 06:12:00,6.0,4.0,-100.00,North,-999,0.0,0.0,88,-99.99,,,0.00,,2013-03-23 12:12:00,
2013-03-23 06:22:00,6.0,4.0,-100.00,North,-999,0.0,0.0,88,-99.99,,,0.00,,2013-03-23 12:22:00,
2013-03-23 06:53:00,5.0,2.0,-100.00,WSW,240,3.0,3.0,87,-99.99,,,0.00,,2013-03-23 12:53:00,
2013-03-23 07:02:00,5.0,2.0,-100.00,WSW,240,3.0,3.0,87,-99.99,,,0.00,,2013-03-23 13:02:00,
2013-03-23 07:12:00,5.0,2.0,-100.00,WSW,240,3.0,3.0,87,-99.99,,,0.00,,2013-03-23 13:12:00,
2013-03-23 07:22:00,5.0,2.0,-100.00,WSW,240,3.0,3.0,87,-99.99,,,0.00,,2013-03-23 13:22:00,
2013-03-23 07:53:00,8.0,5.0,-100.00,SW,235,4.0,4.0,86,-99.99,,,0.00,,2013-03-23 13:53:00,
2013-03-23 08:03:00,8.0,5.0,-100.00,SW,235,4.0,4.0,86,-99.99,,,0.00,,2013-03-23 14:03:00,
2013-03-23 08:12:00,8.0,5.0,-100.00,SW,235,4.0,4.0,86,-99.99,,,0.00,,2013-03-23 14:12:00,
2013-03-23 08:22:00,8.0,5.0,-100.00,SW,235,4.0,4.0,86,-99.99,,,0.00,,2013-03-23 14:22:00,
2013-03-23 08:52:00,11.0,7.0,-100.00,ESE,115,0.0,1.0,85,-99.99,,,0.00,,2013-03-23 14:52:00,
2013-03-23 09:03:00,11.0,7.0,-100.00,ESE,115,0.0,1.0,85,-99.99,,,0.00,,2013-03-23 15:03:00,
2013-03-23 09:12:00,11.0,7.0,-100.00,ESE,115,0.0,1.0,85,-99.99,,,0.00,,2013-03-23 15:12:00,
2013-03-23 09:22:00,11.0,7.0,-100.00,ESE,115,0.0,1.0,85,-99.99,,,0.00,,2013-03-23 15:22:00,
2013-03-23 09:53:00,15.0,10.0,-100.00,South,170,5.0,6.0,80,-99.99,,,0.00,,2013-03-23 15:53:00,
2013-03-23 10:03:00,15.0,10.0,-100.00,South,170,5.0,6.0,80,-99.99,,,0.00,,2013-03-23 16:03:00,
2013-03-23 10:12:00,15.0,10.0,-100.00,South,170,5.0,6.0,80,-99.99,,,0.00,,2013-03-23 16:12:00,
2013-03-23 10:22:00,15.0,10.0,-100.00,South,170,5.0,6.0,80,-99.99,,,0.00,,2013-03-23 16:22:00,
2013-03-23 10:53:00,20.0,14.0,-100.00,SSE,150,10.0,11.0,76,-99.99,,,0.00,,2013-03-23 16:53:00,
2013-03-23 11:02:00,20.0,14.0,-100.00,SSE,150,10.0,11.0,76,-99.99,,,0.00,,2013-03-23 17:02:00,
2013-03-23 11:12:00,20.0,14.0,-100.00,SSE,150,10.0,11.0,76,-99.99,,,0.00,,2013-03-23 17:12:00,
2013-03-23 11:22:00,20.0,14.0,-100.00,SSE,150,10.0,11.0,76,-99.99,,,0.00,,2013-03-23 17:22:00,
2013-03-23 11:53:00,25.0,11.0,-100.00,SW,215,4.0,4.0,55,-99.99,,,0.00,,2013-03-23 17:53:00,
2013-03-23 12:02:00,25.0,11.0,-100.00,SW,215,4.0,4.0,55,-99.99,,,0.00,,2013-03-23 18:02:00,
2013-03-23 12:12:00,25.0,11.0,-100.00,SW,215,4.0,4.0,55,-99.99,,,0.00,,2013-03-23 18:12:00,
2013-03-23 12:22:00,25.0,11.0,-100.00,SW,215,4.0,4.0,55,-99.99,,,0.00,,2013-03-23 18:22:00,
2013-03-23 13:53:00,30.0,3.0,-100.00,NW,315,2.0,3.0,30,-99.99,,,0.00,,2013-03-23 19:53:00,
2013-03-23 14:02:00,30.0,3.0,-100.00,NW,315,2.0,3.0,30,-99.99,,,0.00,,2013-03-23 20:02:00,
2013-03-23 14:12:00,30.0,3.0,-100.00,NW,315,2.0,3.0,30,-99.99,,,0.00,,2013-03-23 20:12:00,
2013-03-23 14:22:00,30.0,3.0,-100.00,NW,315,2.0,3.0,30,-99.99,,,0.00,,2013-03-23 20:22:00,
2013-03-23 14:53:00,32.0,3.0,-100.00,NNW,330,4.0,6.0,28,-99.99,,,0.00,,2013-03-23 20:53:00,
2013-03-23 15:02:00,32.0,3.0,-100.00,NNW,330,4.0,6.0,28,-99.99,,,0.00,,2013-03-23 21:02:00,
2013-03-23 15:12:00,32.0,3.0,-100.00,NNW,330,4.0,6.0,28,-99.99,,,0.00,,2013-03-23 21:12:00,
2013-03-23 15:22:00,32.0,3.0,-100.00,NNW,330,4.0,6.0,28,-99.99,,,0.00,,2013-03-23 21:22:00,
2013-03-23 15:23:00,30.0,1.0,-100.00,North,-999,0.0,0.0,28,-99.99,,,0.00,,2013-03-23 21:23:00,
2013-03-23 15:54:00,30.0,1.0,-100.00,North,-999,0.0,0.0,28,-99.99,,,0.00,,2013-03-23 21:54:00,
2013-03-23 16:02:00,30.0,1.0,-100.00,North,-999,0.0,0.0,28,-99.99,,,0.00,,2013-03-23 22:02:00,
2013-03-23 16:12:00,30.0,1.0,-100.00,North,-999,0.0,0.0,28,-99.99,,,0.00,,2013-03-23 22:12:00,
2013-03-23 16:53:00,31.0,0.0,-100.00,NNE,20,12.0,15.0,26,-99.99,,,0.00,,2013-03-23 22:53:00,
2013-03-23 17:02:00,31.0,0.0,-100.00,NNE,20,12.0,15.0,26,-99.99,,,0.00,,2013-03-23 23:02:00,
2013-03-23 17:12:00,31.0,0.0,-100.00,NNE,20,12.0,15.0,26,-99.99,,,0.00,,2013-03-23 23:12:00,
2013-03-23 17:22:00,31.0,0.0,-100.00,NNE,20,12.0,15.0,26,-99.99,,,0.00,,2013-03-23 23:22:00,
2013-03-23 17:52:00,29.0,-2.0,-100.00,North,0,6.0,8.0,25,-99.99,,,0.00,,2013-03-23 23:52:00,
2013-03-23 18:02:00,29.0,-2.0,-100.00,North,0,6.0,8.0,25,-99.99,,,0.00,,2013-03-24 00:02:00,
2013-03-23 18:52:00,28.0,-3.0,-100.00,East,95,0.0,1.0,25,-99.99,,,0.00,,2013-03-24 00:52:00,
2013-03-23 19:02:00,28.0,-3.0,-100.00,East,95,0.0,1.0,25,-99.99,,,0.00,,2013-03-24 01:02:00,
2013-03-23 19:53:00,26.0,-3.0,-100.00,NE,35,5.0,6.0,28,-99.99,,,0.00,,2013-03-24 01:53:00,
2013-03-23 20:02:00,26.0,-3.0,-100.00,NE,35,5.0,6.0,28,-99.99,,,0.00,,2013-03-24 02:02:00,
2013-03-23 20:52:00,22.0,-2.0,-100.00,NE,35,6.0,6.0,34,-99.99,,,0.00,,2013-03-24 02:52:00,
2013-03-23 21:53:00,18.0,-2.0,-100.00,NE,50,2.0,2.0,41,-99.99,,,-99.99,,2013-03-24 03:53:00,
2013-03-23 22:02:00,18.0,-2.0,-100.00,NE,50,2.0,2.0,41,-99.99,,,-99.99,,2013-03-24 04:02:00,
2013-03-23 22:53:00,17.0,1.0,-100.00,North,-999,0.0,0.0,49,-99.99,,,0.00,,2013-03-24 04:53:00,
2013-03-23 23:02:00,17.0,1.0,-100.00,North,-999,0.0,0.0,49,-99.99,,,0.00,,2013-03-24 05:02:00,
2013-03-23 23:52:00,15.0,3.0,-100.00,West,280,4.0,4.0,59,-99.99,,,0.00,,2013-03-24 05:52:00,